sensor_id;sensor_type;location;lat;lon;timestamp;P1;durP1;ratioP1;P2;durP2;ratioP2
3867;SDS011;1949;48.152;11.528;2023-07-28T00:00:34;5.50;;;2.53;;
3867;SDS011;1949;48.152;11.528;2023-07-28T00:03:00;5.57;;;2.77;;
3867;SDS011;1949;48.152;11.528;2023-07-28T00:05:33;6.33;;;3.00;;
3867;SDS011;1949;48.152;11.528;2023-07-28T00:08:00;4.73;;;2.67;;
3867;SDS011;1949;48.152;11.528;2023-07-28T00:10:27;4.37;;;2.93;;
3867;SDS011;1949;48.152;11.528;2023-07-28T00:12:56;5.90;;;3.00;;
3867;SDS011;1949;48.152;11.528;2023-07-28T00:15:26;6.43;;;3.43;;
3867;SDS011;1949;48.152;11.528;2023-07-28T00:17:51;4.73;;;2.73;;
3867;SDS011;1949;48.152;11.528;2023-07-28T00:20:18;7.70;;;2.60;;
3867;SDS011;1949;48.152;11.528;2023-07-28T00:22:56;5.97;;;2.70;;
3867;SDS011;1949;48.152;11.528;2023-07-28T00:33:02;3.97;;;2.33;;
3867;SDS011;1949;48.152;11.528;2023-07-28T00:35:29;4.33;;;2.63;;
3867;SDS011;1949;48.152;11.528;2023-07-28T00:37:55;3.90;;;2.67;;
3867;SDS011;1949;48.152;11.528;2023-07-28T00:40:22;4.50;;;2.60;;
3867;SDS011;1949;48.152;11.528;2023-07-28T00:42:48;4.17;;;2.13;;
3867;SDS011;1949;48.152;11.528;2023-07-28T00:45:15;4.20;;;2.30;;
3867;SDS011;1949;48.152;11.528;2023-07-28T00:47:46;5.50;;;2.80;;
3867;SDS011;1949;48.152;11.528;2023-07-28T00:50:12;3.07;;;2.10;;
3867;SDS011;1949;48.152;11.528;2023-07-28T00:52:38;7.93;;;1.90;;
3867;SDS011;1949;48.152;11.528;2023-07-28T00:55:12;6.60;;;2.50;;
3867;SDS011;1949;48.152;11.528;2023-07-28T00:57:38;2.80;;;2.00;;
3867;SDS011;1949;48.152;11.528;2023-07-28T01:00:10;5.00;;;2.60;;
3867;SDS011;1949;48.152;11.528;2023-07-28T01:02:38;4.80;;;2.60;;
3867;SDS011;1949;48.152;11.528;2023-07-28T01:10:45;3.07;;;1.83;;
3867;SDS011;1949;48.152;11.528;2023-07-28T01:13:11;5.00;;;1.53;;
3867;SDS011;1949;48.152;11.528;2023-07-28T01:15:47;4.47;;;2.30;;
3867;SDS011;1949;48.152;11.528;2023-07-28T01:18:12;1.87;;;1.50;;
3867;SDS011;1949;48.152;11.528;2023-07-28T01:20:39;4.43;;;2.70;;
3867;SDS011;1949;48.152;11.528;2023-07-28T01:23:20;5.10;;;2.30;;
3867;SDS011;1949;48.152;11.528;2023-07-28T01:26:02;2.70;;;1.93;;
3867;SDS011;1949;48.152;11.528;2023-07-28T01:31:10;7.50;;;4.10;;
3867;SDS011;1949;48.152;11.528;2023-07-28T01:33:36;6.73;;;2.40;;
3867;SDS011;1949;48.152;11.528;2023-07-28T01:36:17;6.57;;;2.20;;
3867;SDS011;1949;48.152;11.528;2023-07-28T01:38:46;3.17;;;2.20;;
3867;SDS011;1949;48.152;11.528;2023-07-28T01:41:12;1.67;;;1.40;;
3867;SDS011;1949;48.152;11.528;2023-07-28T01:43:39;9.73;;;2.10;;
3867;SDS011;1949;48.152;11.528;2023-07-28T01:46:05;4.90;;;2.93;;
3867;SDS011;1949;48.152;11.528;2023-07-28T01:48:31;5.23;;;2.60;;
3867;SDS011;1949;48.152;11.528;2023-07-28T01:50:57;3.97;;;1.80;;
3867;SDS011;1949;48.152;11.528;2023-07-28T01:53:23;2.83;;;1.87;;
3867;SDS011;1949;48.152;11.528;2023-07-28T01:55:50;2.90;;;2.13;;
3867;SDS011;1949;48.152;11.528;2023-07-28T01:58:16;5.27;;;2.17;;
3867;SDS011;1949;48.152;11.528;2023-07-28T02:00:42;4.37;;;2.10;;
3867;SDS011;1949;48.152;11.528;2023-07-28T02:03:08;3.80;;;2.00;;
3867;SDS011;1949;48.152;11.528;2023-07-28T02:05:34;3.13;;;1.53;;
3867;SDS011;1949;48.152;11.528;2023-07-28T02:08:01;2.40;;;1.43;;
3867;SDS011;1949;48.152;11.528;2023-07-28T02:10:31;8.53;;;2.27;;
3867;SDS011;1949;48.152;11.528;2023-07-28T02:12:58;2.50;;;1.70;;
3867;SDS011;1949;48.152;11.528;2023-07-28T02:15:28;2.67;;;1.80;;
3867;SDS011;1949;48.152;11.528;2023-07-28T02:18:01;1.60;;;1.40;;
3867;SDS011;1949;48.152;11.528;2023-07-28T02:20:33;4.40;;;2.13;;
3867;SDS011;1949;48.152;11.528;2023-07-28T02:23:00;3.37;;;1.87;;
3867;SDS011;1949;48.152;11.528;2023-07-28T02:25:27;4.17;;;1.73;;
3867;SDS011;1949;48.152;11.528;2023-07-28T02:27:53;2.40;;;1.50;;
3867;SDS011;1949;48.152;11.528;2023-07-28T02:30:18;4.40;;;2.83;;
3867;SDS011;1949;48.152;11.528;2023-07-28T02:32:45;2.27;;;1.60;;
3867;SDS011;1949;48.152;11.528;2023-07-28T02:35:11;3.10;;;1.80;;
3867;SDS011;1949;48.152;11.528;2023-07-28T02:40:10;3.17;;;1.80;;
3867;SDS011;1949;48.152;11.528;2023-07-28T02:42:42;3.10;;;1.90;;
3867;SDS011;1949;48.152;11.528;2023-07-28T02:45:19;4.27;;;2.23;;
3867;SDS011;1949;48.152;11.528;2023-07-28T02:47:51;3.00;;;1.87;;
3867;SDS011;1949;48.152;11.528;2023-07-28T02:50:17;6.17;;;2.73;;
3867;SDS011;1949;48.152;11.528;2023-07-28T02:52:45;5.53;;;3.13;;
3867;SDS011;1949;48.152;11.528;2023-07-28T02:55:15;5.97;;;2.73;;
3867;SDS011;1949;48.152;11.528;2023-07-28T02:57:40;6.77;;;3.40;;
3867;SDS011;1949;48.152;11.528;2023-07-28T03:00:07;5.47;;;2.60;;
3867;SDS011;1949;48.152;11.528;2023-07-28T03:02:43;4.70;;;2.47;;
3867;SDS011;1949;48.152;11.528;2023-07-28T03:05:10;4.40;;;2.63;;
3867;SDS011;1949;48.152;11.528;2023-07-28T03:07:39;7.03;;;2.93;;
3867;SDS011;1949;48.152;11.528;2023-07-28T03:12:44;4.27;;;1.90;;
3867;SDS011;1949;48.152;11.528;2023-07-28T03:15:11;1.87;;;1.70;;
3867;SDS011;1949;48.152;11.528;2023-07-28T03:17:38;2.37;;;1.80;;
3867;SDS011;1949;48.152;11.528;2023-07-28T03:22:38;3.63;;;2.33;;
3867;SDS011;1949;48.152;11.528;2023-07-28T03:25:05;2.90;;;1.80;;
3867;SDS011;1949;48.152;11.528;2023-07-28T03:27:41;3.80;;;2.20;;
3867;SDS011;1949;48.152;11.528;2023-07-28T03:30:08;5.40;;;2.17;;
3867;SDS011;1949;48.152;11.528;2023-07-28T03:35:05;4.77;;;1.93;;
3867;SDS011;1949;48.152;11.528;2023-07-28T03:37:33;4.63;;;2.20;;
3867;SDS011;1949;48.152;11.528;2023-07-28T03:40:01;3.93;;;2.20;;
3867;SDS011;1949;48.152;11.528;2023-07-28T03:42:26;3.30;;;2.17;;
3867;SDS011;1949;48.152;11.528;2023-07-28T03:44:53;3.10;;;2.00;;
3867;SDS011;1949;48.152;11.528;2023-07-28T03:47:20;3.77;;;1.90;;
3867;SDS011;1949;48.152;11.528;2023-07-28T03:52:14;3.87;;;2.10;;
3867;SDS011;1949;48.152;11.528;2023-07-28T03:54:40;3.80;;;2.50;;
3867;SDS011;1949;48.152;11.528;2023-07-28T03:57:06;2.70;;;1.60;;
3867;SDS011;1949;48.152;11.528;2023-07-28T03:59:31;4.10;;;1.80;;
3867;SDS011;1949;48.152;11.528;2023-07-28T04:01:57;3.73;;;2.00;;
3867;SDS011;1949;48.152;11.528;2023-07-28T04:04:23;2.07;;;1.70;;
3867;SDS011;1949;48.152;11.528;2023-07-28T04:06:55;2.80;;;2.17;;
3867;SDS011;1949;48.152;11.528;2023-07-28T04:09:21;2.37;;;1.90;;
3867;SDS011;1949;48.152;11.528;2023-07-28T04:11:46;3.20;;;1.80;;
3867;SDS011;1949;48.152;11.528;2023-07-28T04:14:12;5.07;;;2.27;;
3867;SDS011;1949;48.152;11.528;2023-07-28T04:16:41;3.40;;;2.07;;
3867;SDS011;1949;48.152;11.528;2023-07-28T04:19:09;5.40;;;1.93;;
3867;SDS011;1949;48.152;11.528;2023-07-28T04:21:34;3.90;;;1.73;;
3867;SDS011;1949;48.152;11.528;2023-07-28T04:24:00;3.43;;;1.70;;
3867;SDS011;1949;48.152;11.528;2023-07-28T04:26:28;6.70;;;2.90;;
3867;SDS011;1949;48.152;11.528;2023-07-28T04:28:55;7.57;;;3.87;;
3867;SDS011;1949;48.152;11.528;2023-07-28T04:31:24;5.13;;;2.97;;
3867;SDS011;1949;48.152;11.528;2023-07-28T04:33:56;7.00;;;3.47;;
3867;SDS011;1949;48.152;11.528;2023-07-28T04:36:22;7.00;;;3.47;;
3867;SDS011;1949;48.152;11.528;2023-07-28T04:38:51;6.33;;;3.90;;
3867;SDS011;1949;48.152;11.528;2023-07-28T04:41:17;7.10;;;3.37;;
3867;SDS011;1949;48.152;11.528;2023-07-28T04:43:43;8.00;;;4.23;;
3867;SDS011;1949;48.152;11.528;2023-07-28T04:46:09;5.23;;;3.07;;
3867;SDS011;1949;48.152;11.528;2023-07-28T04:48:35;9.50;;;3.80;;
3867;SDS011;1949;48.152;11.528;2023-07-28T04:51:01;16.73;;;7.90;;
3867;SDS011;1949;48.152;11.528;2023-07-28T04:53:27;8.53;;;4.80;;
3867;SDS011;1949;48.152;11.528;2023-07-28T04:55:53;11.70;;;6.30;;
3867;SDS011;1949;48.152;11.528;2023-07-28T04:58:20;6.40;;;3.23;;
3867;SDS011;1949;48.152;11.528;2023-07-28T05:00:46;13.10;;;5.23;;
3867;SDS011;1949;48.152;11.528;2023-07-28T05:03:14;6.70;;;4.27;;
3867;SDS011;1949;48.152;11.528;2023-07-28T05:05:42;7.97;;;3.70;;
3867;SDS011;1949;48.152;11.528;2023-07-28T05:08:11;4.53;;;2.80;;
3867;SDS011;1949;48.152;11.528;2023-07-28T05:10:37;7.07;;;3.43;;
3867;SDS011;1949;48.152;11.528;2023-07-28T05:13:02;3.30;;;1.80;;
3867;SDS011;1949;48.152;11.528;2023-07-28T05:15:31;33.47;;;10.37;;
3867;SDS011;1949;48.152;11.528;2023-07-28T05:17:57;4.83;;;2.83;;
3867;SDS011;1949;48.152;11.528;2023-07-28T05:22:54;9.53;;;5.63;;
3867;SDS011;1949;48.152;11.528;2023-07-28T05:25:20;10.60;;;4.60;;
3867;SDS011;1949;48.152;11.528;2023-07-28T05:27:47;8.13;;;4.63;;
3867;SDS011;1949;48.152;11.528;2023-07-28T05:30:13;6.13;;;3.20;;
3867;SDS011;1949;48.152;11.528;2023-07-28T05:32:43;5.70;;;2.60;;
3867;SDS011;1949;48.152;11.528;2023-07-28T05:35:11;7.73;;;3.07;;
3867;SDS011;1949;48.152;11.528;2023-07-28T05:37:36;5.60;;;2.90;;
3867;SDS011;1949;48.152;11.528;2023-07-28T05:40:02;9.10;;;4.60;;
3867;SDS011;1949;48.152;11.528;2023-07-28T05:42:28;8.03;;;4.10;;
3867;SDS011;1949;48.152;11.528;2023-07-28T05:44:55;4.13;;;2.60;;
3867;SDS011;1949;48.152;11.528;2023-07-28T05:47:21;7.10;;;3.43;;
3867;SDS011;1949;48.152;11.528;2023-07-28T05:49:46;8.80;;;3.77;;
3867;SDS011;1949;48.152;11.528;2023-07-28T05:52:12;4.53;;;2.93;;
3867;SDS011;1949;48.152;11.528;2023-07-28T05:54:46;7.17;;;2.50;;
3867;SDS011;1949;48.152;11.528;2023-07-28T05:57:12;3.80;;;2.20;;
3867;SDS011;1949;48.152;11.528;2023-07-28T05:59:37;3.93;;;2.83;;
3867;SDS011;1949;48.152;11.528;2023-07-28T06:02:03;7.70;;;2.63;;
3867;SDS011;1949;48.152;11.528;2023-07-28T06:07:02;7.77;;;2.70;;
3867;SDS011;1949;48.152;11.528;2023-07-28T06:09:27;4.67;;;2.17;;
3867;SDS011;1949;48.152;11.528;2023-07-28T06:11:55;4.70;;;2.57;;
3867;SDS011;1949;48.152;11.528;2023-07-28T06:14:21;2.13;;;1.73;;
3867;SDS011;1949;48.152;11.528;2023-07-28T06:16:46;3.93;;;2.13;;
3867;SDS011;1949;48.152;11.528;2023-07-28T06:19:14;4.20;;;2.97;;
3867;SDS011;1949;48.152;11.528;2023-07-28T06:21:43;3.00;;;2.10;;
3867;SDS011;1949;48.152;11.528;2023-07-28T06:24:08;4.10;;;2.07;;
3867;SDS011;1949;48.152;11.528;2023-07-28T06:26:34;4.30;;;1.90;;
3867;SDS011;1949;48.152;11.528;2023-07-28T06:29:00;3.27;;;1.93;;
3867;SDS011;1949;48.152;11.528;2023-07-28T06:31:27;3.30;;;2.30;;
3867;SDS011;1949;48.152;11.528;2023-07-28T06:33:54;4.30;;;2.40;;
3867;SDS011;1949;48.152;11.528;2023-07-28T06:36:20;5.43;;;3.00;;
3867;SDS011;1949;48.152;11.528;2023-07-28T06:38:46;5.33;;;2.30;;
3867;SDS011;1949;48.152;11.528;2023-07-28T06:41:14;4.90;;;2.37;;
3867;SDS011;1949;48.152;11.528;2023-07-28T06:43:46;2.47;;;1.97;;
3867;SDS011;1949;48.152;11.528;2023-07-28T06:46:14;3.40;;;1.93;;
3867;SDS011;1949;48.152;11.528;2023-07-28T06:48:42;7.67;;;3.77;;
3867;SDS011;1949;48.152;11.528;2023-07-28T06:51:08;2.10;;;1.90;;
3867;SDS011;1949;48.152;11.528;2023-07-28T06:53:33;19.97;;;4.37;;
3867;SDS011;1949;48.152;11.528;2023-07-28T06:58:31;4.10;;;2.63;;
3867;SDS011;1949;48.152;11.528;2023-07-28T07:00:56;4.47;;;2.00;;
3867;SDS011;1949;48.152;11.528;2023-07-28T07:03:23;2.57;;;1.90;;
3867;SDS011;1949;48.152;11.528;2023-07-28T07:05:49;1.87;;;1.63;;
3867;SDS011;1949;48.152;11.528;2023-07-28T07:08:18;4.27;;;1.90;;
3867;SDS011;1949;48.152;11.528;2023-07-28T07:10:47;2.07;;;1.87;;
3867;SDS011;1949;48.152;11.528;2023-07-28T07:13:15;3.10;;;1.80;;
3867;SDS011;1949;48.152;11.528;2023-07-28T07:15:41;3.73;;;2.27;;
3867;SDS011;1949;48.152;11.528;2023-07-28T07:18:08;9.53;;;4.80;;
3867;SDS011;1949;48.152;11.528;2023-07-28T07:20:34;2.70;;;1.60;;
3867;SDS011;1949;48.152;11.528;2023-07-28T07:23:01;3.03;;;1.77;;
3867;SDS011;1949;48.152;11.528;2023-07-28T07:25:26;24.77;;;3.20;;
3867;SDS011;1949;48.152;11.528;2023-07-28T07:27:52;3.63;;;1.87;;
3867;SDS011;1949;48.152;11.528;2023-07-28T07:30:18;3.90;;;2.40;;
3867;SDS011;1949;48.152;11.528;2023-07-28T07:32:45;2.57;;;1.73;;
3867;SDS011;1949;48.152;11.528;2023-07-28T07:35:11;4.80;;;2.00;;
3867;SDS011;1949;48.152;11.528;2023-07-28T07:37:38;2.40;;;1.80;;
3867;SDS011;1949;48.152;11.528;2023-07-28T07:40:05;7.70;;;2.03;;
3867;SDS011;1949;48.152;11.528;2023-07-28T07:42:48;5.77;;;1.73;;
3867;SDS011;1949;48.152;11.528;2023-07-28T07:45:14;2.30;;;1.63;;
3867;SDS011;1949;48.152;11.528;2023-07-28T07:47:40;2.13;;;1.60;;
3867;SDS011;1949;48.152;11.528;2023-07-28T07:50:07;2.77;;;1.90;;
3867;SDS011;1949;48.152;11.528;2023-07-28T07:52:38;5.23;;;2.33;;
3867;SDS011;1949;48.152;11.528;2023-07-28T07:55:04;2.60;;;1.83;;
3867;SDS011;1949;48.152;11.528;2023-07-28T07:57:31;2.23;;;1.60;;
3867;SDS011;1949;48.152;11.528;2023-07-28T07:59:59;3.00;;;1.87;;
3867;SDS011;1949;48.152;11.528;2023-07-28T08:02:25;7.40;;;3.90;;
3867;SDS011;1949;48.152;11.528;2023-07-28T08:04:52;6.17;;;3.00;;
3867;SDS011;1949;48.152;11.528;2023-07-28T08:07:21;2.67;;;2.13;;
3867;SDS011;1949;48.152;11.528;2023-07-28T08:09:49;4.83;;;2.00;;
3867;SDS011;1949;48.152;11.528;2023-07-28T08:12:15;5.27;;;1.77;;
3867;SDS011;1949;48.152;11.528;2023-07-28T08:14:41;4.50;;;1.60;;
3867;SDS011;1949;48.152;11.528;2023-07-28T08:17:08;3.40;;;1.70;;
3867;SDS011;1949;48.152;11.528;2023-07-28T08:19:35;8.83;;;1.43;;
3867;SDS011;1949;48.152;11.528;2023-07-28T08:22:01;1.67;;;1.50;;
3867;SDS011;1949;48.152;11.528;2023-07-28T08:24:31;2.13;;;1.80;;
3867;SDS011;1949;48.152;11.528;2023-07-28T08:26:57;1.57;;;1.30;;
3867;SDS011;1949;48.152;11.528;2023-07-28T08:29:22;3.17;;;2.00;;
3867;SDS011;1949;48.152;11.528;2023-07-28T08:31:49;1.87;;;1.63;;
3867;SDS011;1949;48.152;11.528;2023-07-28T08:34:16;1.80;;;1.57;;
3867;SDS011;1949;48.152;11.528;2023-07-28T08:36:43;2.80;;;1.70;;
3867;SDS011;1949;48.152;11.528;2023-07-28T08:39:09;3.37;;;1.77;;
3867;SDS011;1949;48.152;11.528;2023-07-28T08:41:35;3.30;;;1.90;;
3867;SDS011;1949;48.152;11.528;2023-07-28T08:44:02;4.87;;;1.67;;
3867;SDS011;1949;48.152;11.528;2023-07-28T08:46:28;2.43;;;1.90;;
3867;SDS011;1949;48.152;11.528;2023-07-28T08:48:54;3.03;;;1.70;;
3867;SDS011;1949;48.152;11.528;2023-07-28T08:51:22;1.93;;;1.43;;
3867;SDS011;1949;48.152;11.528;2023-07-28T08:53:48;6.63;;;1.63;;
3867;SDS011;1949;48.152;11.528;2023-07-28T08:56:14;2.60;;;1.90;;
3867;SDS011;1949;48.152;11.528;2023-07-28T08:58:42;3.97;;;2.00;;
3867;SDS011;1949;48.152;11.528;2023-07-28T09:01:08;2.80;;;1.67;;
3867;SDS011;1949;48.152;11.528;2023-07-28T09:03:34;5.20;;;1.57;;
3867;SDS011;1949;48.152;11.528;2023-07-28T09:06:05;3.30;;;1.87;;
3867;SDS011;1949;48.152;11.528;2023-07-28T09:08:34;3.37;;;1.90;;
3867;SDS011;1949;48.152;11.528;2023-07-28T09:11:04;1.73;;;1.50;;
3867;SDS011;1949;48.152;11.528;2023-07-28T09:13:35;3.23;;;1.93;;
3867;SDS011;1949;48.152;11.528;2023-07-28T09:16:03;1.70;;;1.30;;
3867;SDS011;1949;48.152;11.528;2023-07-28T09:18:29;3.30;;;1.57;;
3867;SDS011;1949;48.152;11.528;2023-07-28T09:20:55;2.13;;;1.80;;
3867;SDS011;1949;48.152;11.528;2023-07-28T09:23:28;5.33;;;1.90;;
3867;SDS011;1949;48.152;11.528;2023-07-28T09:25:58;2.13;;;1.67;;
3867;SDS011;1949;48.152;11.528;2023-07-28T09:28:36;9.33;;;1.67;;
3867;SDS011;1949;48.152;11.528;2023-07-28T09:31:05;1.50;;;1.40;;
3867;SDS011;1949;48.152;11.528;2023-07-28T09:33:34;1.53;;;1.40;;
3867;SDS011;1949;48.152;11.528;2023-07-28T09:36:08;3.00;;;1.67;;
3867;SDS011;1949;48.152;11.528;2023-07-28T09:38:36;4.00;;;1.43;;
3867;SDS011;1949;48.152;11.528;2023-07-28T09:43:37;3.00;;;1.63;;
3867;SDS011;1949;48.152;11.528;2023-07-28T09:46:05;1.90;;;1.57;;
3867;SDS011;1949;48.152;11.528;2023-07-28T09:48:34;2.13;;;1.77;;
3867;SDS011;1949;48.152;11.528;2023-07-28T09:51:08;2.80;;;1.83;;
3867;SDS011;1949;48.152;11.528;2023-07-28T09:53:40;4.83;;;1.53;;
3867;SDS011;1949;48.152;11.528;2023-07-28T09:56:12;4.00;;;1.53;;
3867;SDS011;1949;48.152;11.528;2023-07-28T09:58:44;3.33;;;1.73;;
3867;SDS011;1949;48.152;11.528;2023-07-28T10:01:17;3.97;;;1.80;;
3867;SDS011;1949;48.152;11.528;2023-07-28T10:03:44;3.00;;;2.10;;
3867;SDS011;1949;48.152;11.528;2023-07-28T10:06:10;6.10;;;2.00;;
3867;SDS011;1949;48.152;11.528;2023-07-28T10:08:37;3.40;;;1.80;;
3867;SDS011;1949;48.152;11.528;2023-07-28T10:11:04;2.47;;;1.50;;
3867;SDS011;1949;48.152;11.528;2023-07-28T10:13:38;3.73;;;1.53;;
3867;SDS011;1949;48.152;11.528;2023-07-28T10:16:08;2.27;;;1.70;;
3867;SDS011;1949;48.152;11.528;2023-07-28T10:18:34;2.43;;;1.70;;
3867;SDS011;1949;48.152;11.528;2023-07-28T10:21:10;4.03;;;2.50;;
3867;SDS011;1949;48.152;11.528;2023-07-28T10:23:41;1.67;;;1.57;;
3867;SDS011;1949;48.152;11.528;2023-07-28T10:26:09;1.67;;;1.40;;
3867;SDS011;1949;48.152;11.528;2023-07-28T10:28:35;7.23;;;1.57;;
3867;SDS011;1949;48.152;11.528;2023-07-28T10:31:11;3.70;;;1.57;;
3867;SDS011;1949;48.152;11.528;2023-07-28T10:33:40;7.07;;;3.73;;
3867;SDS011;1949;48.152;11.528;2023-07-28T10:36:32;6.13;;;2.20;;
3867;SDS011;1949;48.152;11.528;2023-07-28T10:41:34;3.93;;;2.13;;
3867;SDS011;1949;48.152;11.528;2023-07-28T10:44:00;3.07;;;1.80;;
3867;SDS011;1949;48.152;11.528;2023-07-28T10:46:27;4.67;;;1.80;;
3867;SDS011;1949;48.152;11.528;2023-07-28T10:48:53;2.80;;;1.73;;
3867;SDS011;1949;48.152;11.528;2023-07-28T10:51:25;2.40;;;2.17;;
3867;SDS011;1949;48.152;11.528;2023-07-28T10:53:55;6.10;;;1.73;;
3867;SDS011;1949;48.152;11.528;2023-07-28T10:56:24;1.93;;;1.77;;
3867;SDS011;1949;48.152;11.528;2023-07-28T10:59:00;7.10;;;2.03;;
3867;SDS011;1949;48.152;11.528;2023-07-28T11:01:34;6.27;;;2.43;;
3867;SDS011;1949;48.152;11.528;2023-07-28T11:04:08;2.70;;;1.87;;
3867;SDS011;1949;48.152;11.528;2023-07-28T11:06:45;3.40;;;1.40;;
3867;SDS011;1949;48.152;11.528;2023-07-28T11:09:14;2.17;;;1.60;;
3867;SDS011;1949;48.152;11.528;2023-07-28T11:11:43;5.90;;;1.90;;
3867;SDS011;1949;48.152;11.528;2023-07-28T11:14:09;6.60;;;2.30;;
3867;SDS011;1949;48.152;11.528;2023-07-28T11:16:35;9.43;;;1.73;;
3867;SDS011;1949;48.152;11.528;2023-07-28T11:19:07;3.70;;;2.60;;
3867;SDS011;1949;48.152;11.528;2023-07-28T11:21:38;1.80;;;1.70;;
3867;SDS011;1949;48.152;11.528;2023-07-28T11:26:43;11.80;;;2.80;;
3867;SDS011;1949;48.152;11.528;2023-07-28T11:29:11;3.07;;;2.10;;
3867;SDS011;1949;48.152;11.528;2023-07-28T11:31:37;2.63;;;1.83;;
3867;SDS011;1949;48.152;11.528;2023-07-28T11:34:12;4.00;;;1.73;;
3867;SDS011;1949;48.152;11.528;2023-07-28T11:36:42;3.67;;;2.30;;
3867;SDS011;1949;48.152;11.528;2023-07-28T11:39:08;6.33;;;2.23;;
3867;SDS011;1949;48.152;11.528;2023-07-28T11:41:35;3.40;;;2.13;;
3867;SDS011;1949;48.152;11.528;2023-07-28T11:44:02;4.17;;;2.67;;
3867;SDS011;1949;48.152;11.528;2023-07-28T11:49:17;6.23;;;2.07;;
3867;SDS011;1949;48.152;11.528;2023-07-28T11:51:47;4.10;;;1.87;;
3867;SDS011;1949;48.152;11.528;2023-07-28T11:54:15;4.50;;;1.90;;
3867;SDS011;1949;48.152;11.528;2023-07-28T11:56:45;3.50;;;2.00;;
3867;SDS011;1949;48.152;11.528;2023-07-28T11:59:14;3.50;;;2.10;;
3867;SDS011;1949;48.152;11.528;2023-07-28T12:04:32;3.43;;;1.70;;
3867;SDS011;1949;48.152;11.528;2023-07-28T12:07:08;2.93;;;2.27;;
3867;SDS011;1949;48.152;11.528;2023-07-28T12:12:27;2.83;;;1.60;;
3867;SDS011;1949;48.152;11.528;2023-07-28T12:17:31;2.60;;;1.70;;
3867;SDS011;1949;48.152;11.528;2023-07-28T12:20:00;4.80;;;1.93;;
3867;SDS011;1949;48.152;11.528;2023-07-28T12:22:39;7.43;;;1.50;;
3867;SDS011;1949;48.152;11.528;2023-07-28T12:25:08;5.00;;;2.00;;
3867;SDS011;1949;48.152;11.528;2023-07-28T12:27:41;5.83;;;2.53;;
3867;SDS011;1949;48.152;11.528;2023-07-28T12:30:09;3.07;;;1.93;;
3867;SDS011;1949;48.152;11.528;2023-07-28T12:32:35;2.43;;;1.87;;
3867;SDS011;1949;48.152;11.528;2023-07-28T12:35:01;6.40;;;1.90;;
3867;SDS011;1949;48.152;11.528;2023-07-28T12:37:27;6.20;;;2.23;;
3867;SDS011;1949;48.152;11.528;2023-07-28T12:39:52;2.40;;;2.00;;
3867;SDS011;1949;48.152;11.528;2023-07-28T12:42:19;3.00;;;1.80;;
3867;SDS011;1949;48.152;11.528;2023-07-28T12:44:50;2.10;;;1.70;;
3867;SDS011;1949;48.152;11.528;2023-07-28T12:47:16;3.00;;;1.87;;
3867;SDS011;1949;48.152;11.528;2023-07-28T12:49:42;3.00;;;1.70;;
3867;SDS011;1949;48.152;11.528;2023-07-28T12:52:09;3.50;;;2.03;;
3867;SDS011;1949;48.152;11.528;2023-07-28T12:54:36;3.87;;;2.20;;
3867;SDS011;1949;48.152;11.528;2023-07-28T12:57:03;4.53;;;2.73;;
3867;SDS011;1949;48.152;11.528;2023-07-28T12:59:29;3.80;;;2.10;;
3867;SDS011;1949;48.152;11.528;2023-07-28T13:01:55;2.27;;;1.63;;
3867;SDS011;1949;48.152;11.528;2023-07-28T13:04:22;3.07;;;2.13;;
3867;SDS011;1949;48.152;11.528;2023-07-28T13:06:47;2.60;;;1.70;;
3867;SDS011;1949;48.152;11.528;2023-07-28T13:09:13;3.23;;;2.30;;
3867;SDS011;1949;48.152;11.528;2023-07-28T13:11:40;2.60;;;1.67;;
3867;SDS011;1949;48.152;11.528;2023-07-28T13:14:06;1.93;;;1.70;;
3867;SDS011;1949;48.152;11.528;2023-07-28T13:16:32;3.23;;;2.13;;
3867;SDS011;1949;48.152;11.528;2023-07-28T13:18:59;3.10;;;2.03;;
3867;SDS011;1949;48.152;11.528;2023-07-28T13:21:25;4.67;;;1.57;;
3867;SDS011;1949;48.152;11.528;2023-07-28T13:23:51;4.27;;;2.30;;
3867;SDS011;1949;48.152;11.528;2023-07-28T13:26:23;1.93;;;1.70;;
3867;SDS011;1949;48.152;11.528;2023-07-28T13:28:51;3.60;;;1.73;;
3867;SDS011;1949;48.152;11.528;2023-07-28T13:31:20;3.73;;;2.30;;
3867;SDS011;1949;48.152;11.528;2023-07-28T13:33:46;2.47;;;2.00;;
3867;SDS011;1949;48.152;11.528;2023-07-28T13:36:12;3.00;;;2.00;;
3867;SDS011;1949;48.152;11.528;2023-07-28T13:38:39;3.13;;;1.80;;
3867;SDS011;1949;48.152;11.528;2023-07-28T13:41:06;2.17;;;1.80;;
3867;SDS011;1949;48.152;11.528;2023-07-28T13:43:34;3.10;;;1.80;;
3867;SDS011;1949;48.152;11.528;2023-07-28T13:46:02;3.67;;;2.07;;
3867;SDS011;1949;48.152;11.528;2023-07-28T13:48:31;2.10;;;1.90;;
3867;SDS011;1949;48.152;11.528;2023-07-28T13:50:58;4.13;;;2.23;;
3867;SDS011;1949;48.152;11.528;2023-07-28T13:53:26;2.07;;;1.87;;
3867;SDS011;1949;48.152;11.528;2023-07-28T13:55:53;1.80;;;1.60;;
3867;SDS011;1949;48.152;11.528;2023-07-28T13:58:19;3.93;;;2.00;;
3867;SDS011;1949;48.152;11.528;2023-07-28T14:00:46;2.93;;;2.00;;
3867;SDS011;1949;48.152;11.528;2023-07-28T14:03:12;2.37;;;1.80;;
3867;SDS011;1949;48.152;11.528;2023-07-28T14:08:12;4.57;;;2.03;;
3867;SDS011;1949;48.152;11.528;2023-07-28T14:10:43;2.90;;;2.10;;
3867;SDS011;1949;48.152;11.528;2023-07-28T14:15:54;2.27;;;1.57;;
3867;SDS011;1949;48.152;11.528;2023-07-28T14:18:21;1.67;;;1.57;;
3867;SDS011;1949;48.152;11.528;2023-07-28T14:20:47;2.40;;;2.00;;
3867;SDS011;1949;48.152;11.528;2023-07-28T14:23:23;3.73;;;1.57;;
3867;SDS011;1949;48.152;11.528;2023-07-28T14:25:50;2.17;;;1.77;;
3867;SDS011;1949;48.152;11.528;2023-07-28T14:28:17;5.10;;;1.93;;
3867;SDS011;1949;48.152;11.528;2023-07-28T14:30:44;2.00;;;1.80;;
3867;SDS011;1949;48.152;11.528;2023-07-28T14:33:26;3.53;;;1.77;;
3867;SDS011;1949;48.152;11.528;2023-07-28T14:35:53;4.20;;;2.17;;
3867;SDS011;1949;48.152;11.528;2023-07-28T14:38:23;2.10;;;1.90;;
3867;SDS011;1949;48.152;11.528;2023-07-28T14:40:51;2.83;;;2.10;;
3867;SDS011;1949;48.152;11.528;2023-07-28T14:45:56;3.10;;;1.97;;
3867;SDS011;1949;48.152;11.528;2023-07-28T14:48:29;2.97;;;2.20;;
3867;SDS011;1949;48.152;11.528;2023-07-28T14:51:02;4.10;;;1.87;;
3867;SDS011;1949;48.152;11.528;2023-07-28T14:53:35;2.97;;;1.90;;
3867;SDS011;1949;48.152;11.528;2023-07-28T14:56:17;16.40;;;2.83;;
3867;SDS011;1949;48.152;11.528;2023-07-28T15:01:18;8.50;;;2.10;;
3867;SDS011;1949;48.152;11.528;2023-07-28T15:03:45;5.93;;;2.43;;
3867;SDS011;1949;48.152;11.528;2023-07-28T15:06:13;2.57;;;1.90;;
3867;SDS011;1949;48.152;11.528;2023-07-28T15:08:39;22.27;;;2.30;;
3867;SDS011;1949;48.152;11.528;2023-07-28T15:11:07;3.40;;;2.10;;
3867;SDS011;1949;48.152;11.528;2023-07-28T15:13:33;9.33;;;2.27;;
3867;SDS011;1949;48.152;11.528;2023-07-28T15:16:02;3.50;;;2.23;;
3867;SDS011;1949;48.152;11.528;2023-07-28T15:18:34;3.90;;;2.40;;
3867;SDS011;1949;48.152;11.528;2023-07-28T15:20:59;7.73;;;3.00;;
3867;SDS011;1949;48.152;11.528;2023-07-28T15:23:26;9.03;;;3.40;;
3867;SDS011;1949;48.152;11.528;2023-07-28T15:25:56;5.17;;;3.00;;
3867;SDS011;1949;48.152;11.528;2023-07-28T15:28:22;33.03;;;15.87;;
3867;SDS011;1949;48.152;11.528;2023-07-28T15:33:35;48.13;;;23.17;;
3867;SDS011;1949;48.152;11.528;2023-07-28T15:36:02;34.37;;;14.90;;
3867;SDS011;1949;48.152;11.528;2023-07-28T15:38:28;39.93;;;20.93;;
3867;SDS011;1949;48.152;11.528;2023-07-28T15:40:54;10.00;;;5.80;;
3867;SDS011;1949;48.152;11.528;2023-07-28T15:43:24;11.70;;;6.30;;
3867;SDS011;1949;48.152;11.528;2023-07-28T15:45:50;5.27;;;3.07;;
3867;SDS011;1949;48.152;11.528;2023-07-28T15:48:23;6.20;;;3.33;;
3867;SDS011;1949;48.152;11.528;2023-07-28T15:50:49;4.33;;;1.93;;
3867;SDS011;1949;48.152;11.528;2023-07-28T15:53:16;53.73;;;27.03;;
3867;SDS011;1949;48.152;11.528;2023-07-28T15:55:42;28.47;;;16.30;;
3867;SDS011;1949;48.152;11.528;2023-07-28T15:58:08;31.93;;;18.37;;
3867;SDS011;1949;48.152;11.528;2023-07-28T16:00:34;13.20;;;7.80;;
3867;SDS011;1949;48.152;11.528;2023-07-28T16:03:01;8.83;;;6.00;;
3867;SDS011;1949;48.152;11.528;2023-07-28T16:05:27;7.57;;;3.67;;
3867;SDS011;1949;48.152;11.528;2023-07-28T16:07:53;6.53;;;3.70;;
3867;SDS011;1949;48.152;11.528;2023-07-28T16:10:18;3.70;;;2.50;;
3867;SDS011;1949;48.152;11.528;2023-07-28T16:12:45;1.63;;;1.40;;